ARCT2: Red River, ARthur City

                                SHEF ID:       ARCT2     Red River at Arthur City, TX
STATION TYPE: Stream Gauge
Regulating: Stage = 27.00, Flow = 84609

PRECIP ELEVATION STAGE STAGE(2) RIV-FLOW BAT-LOAD
in ft ft ft cfs volt
Ccp-Rev Ccp-Rev Ccp-Rev Ccp-Rev Ccp-Rev Ccp-Rev
(America/Chicago)
03/03 00:00 0.00 ---- 3.50 ---- 653 12.49
03/03 01:00 0.00 ---- 3.50 ---- 653 12.49
03/03 02:00 0.00 ---- 3.50 ---- 653 12.49
03/03 03:00 0.00 ---- 3.50 ---- 653 12.41
03/03 04:00 0.00 ---- 3.48 ---- 639 12.41
03/03 05:00 0.00 ---- 3.49 ---- 646 12.41
03/03 06:00 0.00 ---- 3.50 ---- 653 12.41
03/03 07:00 0.00 ---- 3.50 ---- 653 12.41
03/03 08:00 0.00 ---- 3.48 ---- 639 12.41
03/03 09:00 0.00 ---- 3.49 ---- 646 13.21
03/03 10:00 0.00 ---- 3.48 ---- 639 14.00
03/03 11:00 0.00 ---- 3.48 ---- 639 13.68
03/03 12:00 0.00 ---- 3.48 ---- 639 13.68
03/03 13:00 0.00 ---- 3.46 ---- 624 13.84
03/03 14:00 0.00 ---- 3.45 ---- 617 13.68
03/03 15:00 0.00 ---- 3.45 ---- 617 13.84
03/03 16:00 0.00 ---- 3.45 ---- 617 13.76
03/03 17:00 0.00 ---- 3.45 ---- 617 13.44
03/03 18:00 0.00 ---- 3.46 ---- 624 13.29
03/03 19:00 0.00 ---- 3.46 ---- 624 12.97
03/03 20:00 0.00 ---- 3.44 ---- 610 12.65
03/03 21:00 0.00 ---- 3.46 ---- 624 12.57
03/03 22:00 0.00 ---- 3.46 ---- 624 12.57
03/03 23:00 0.00 ---- 3.46 ---- 624 12.57
Data processed at Wed 04Mar2026 05:30 GMT

NOTICE: If you are parsing this page

Please convert to using our Data API. Starting early 2026 we will be migrating to: https://water.usace.army.mil with modern pages rendered in JavaScript. When this migration completes you will no longer be able to scrape this page! CWMSDataAPI (CDA)

Timeseries IDs (TSIDs)

TSIDs used from left to right in the data table
ARTH.Precip-Inc.Total.1Hour.1Hour.Ccp-Rev
ARTH.Stage.Inst.1Hour.0.Ccp-Rev
ARTH.Stage-Alt.Inst.1Hour.0.Ccp-Rev
ARTH.Flow.Inst.1Hour.0.Ccp-Rev
ARTH.Volt-Battery Load.Inst.1Hour.0.Ccp-Rev

                            

All information presented herein is the property of the government of the United States of America and may be revised or deleted at any time without prior notice. Dissemination of this information without the expressed written consent of the Public Affairs Office, Tulsa District U.S. Army Corps of Engineers is strictly prohibited. These data are gathered electronically and, as presented, have NOT undergone any form of quality control. These data are NOT guaranteed to be valid or correct.